KABY Airport (Southwest Georgia Rgnl) Information

FAA: ABY - ICAO: KABY

KABY Airport Location

State Georgia
County Dougherty
City Albany
KABY Airport is 3 miles southwest of Albany, GA.
Latitude 31-32-07.9000N
Longitude 084-11-40.1000W
Elevation 196ft

KABY Airport METARs

METAR KABY 282153Z VRB05KT 10SM FEW065 32/13 A2989 RMK AO2 SLP120 T03170133
Altimeter 29.89"
Temperature 31.7°C (89.1°F)
Wind 0° at 5KT
Clouds few at 6,500ft
Visibility 10.0mi
Time observed: 2022-05-28T21:53:00Z

KABY Airport Details

Status Operational
Activation April 1940
Ownership Public
Usage Public
Chart JACKSONVILLE
ATC on-site Yes
Beacon schedule sunset-sunrise
Beacon color clear green

KABY Airport Contacts

Owner CITY OF ALBANY
Owner address 3905 NEWTON ROAD, SUITE 100, ALBANY, GA 31701-7356
Owner phone 229-430-5175
Manager STEWART W HURST
Manager address GRIFFINS PEACE RIVER RANCH, PO BOX 127, FROSTPROOF, FL 33843
Manager phone 863-635-2251

KABY Airport (Southwest Georgia Rgnl) Radio Frequencies

KABY (Airport) Radio Frequencies

UNICOM 122.95
Common traffic advisory frequency (CTAF) 120.25